sensor_id;sensor_type;location;lat;lon;timestamp;P1;durP1;ratioP1;P2;durP2;ratioP2
13943;SDS011;7044;53.286;8.534;2023-04-16T00:01:54;24.67;;;13.53;;
13943;SDS011;7044;53.286;8.534;2023-04-16T00:04:21;22.17;;;14.60;;
13943;SDS011;7044;53.286;8.534;2023-04-16T00:06:48;21.60;;;13.80;;
13943;SDS011;7044;53.286;8.534;2023-04-16T00:09:15;20.23;;;14.37;;
13943;SDS011;7044;53.286;8.534;2023-04-16T00:11:43;20.83;;;14.60;;
13943;SDS011;7044;53.286;8.534;2023-04-16T00:14:10;18.60;;;13.60;;
13943;SDS011;7044;53.286;8.534;2023-04-16T00:16:36;17.73;;;13.80;;
13943;SDS011;7044;53.286;8.534;2023-04-16T00:19:03;23.85;;;14.48;;
13943;SDS011;7044;53.286;8.534;2023-04-16T00:21:30;26.50;;;14.07;;
13943;SDS011;7044;53.286;8.534;2023-04-16T00:23:57;24.40;;;14.87;;
13943;SDS011;7044;53.286;8.534;2023-04-16T00:26:24;23.67;;;14.13;;
13943;SDS011;7044;53.286;8.534;2023-04-16T00:28:52;18.53;;;13.47;;
13943;SDS011;7044;53.286;8.534;2023-04-16T00:31:25;21.27;;;14.20;;
13943;SDS011;7044;53.286;8.534;2023-04-16T00:33:53;18.30;;;13.73;;
13943;SDS011;7044;53.286;8.534;2023-04-16T00:36:20;20.27;;;14.30;;
13943;SDS011;7044;53.286;8.534;2023-04-16T00:38:48;17.53;;;13.80;;
13943;SDS011;7044;53.286;8.534;2023-04-16T00:41:15;22.70;;;13.37;;
13943;SDS011;7044;53.286;8.534;2023-04-16T00:43:41;19.65;;;13.10;;
13943;SDS011;7044;53.286;8.534;2023-04-16T00:46:10;18.97;;;13.73;;
13943;SDS011;7044;53.286;8.534;2023-04-16T00:48:38;22.73;;;13.27;;
13943;SDS011;7044;53.286;8.534;2023-04-16T00:51:06;17.87;;;13.57;;
13943;SDS011;7044;53.286;8.534;2023-04-16T00:53:34;22.20;;;13.53;;
13943;SDS011;7044;53.286;8.534;2023-04-16T00:56:01;17.17;;;13.43;;
13943;SDS011;7044;53.286;8.534;2023-04-16T00:58:29;19.77;;;12.93;;
13943;SDS011;7044;53.286;8.534;2023-04-16T01:00:56;20.98;;;14.02;;
13943;SDS011;7044;53.286;8.534;2023-04-16T01:03:27;25.77;;;14.47;;
13943;SDS011;7044;53.286;8.534;2023-04-16T01:06:03;21.80;;;13.48;;
13943;SDS011;7044;53.286;8.534;2023-04-16T01:08:31;18.98;;;13.75;;
13943;SDS011;7044;53.286;8.534;2023-04-16T01:10:57;23.77;;;14.03;;
13943;SDS011;7044;53.286;8.534;2023-04-16T01:13:24;21.60;;;14.77;;
13943;SDS011;7044;53.286;8.534;2023-04-16T01:15:51;19.03;;;14.33;;
13943;SDS011;7044;53.286;8.534;2023-04-16T01:18:18;19.60;;;14.67;;
13943;SDS011;7044;53.286;8.534;2023-04-16T01:20:47;19.33;;;14.33;;
13943;SDS011;7044;53.286;8.534;2023-04-16T01:23:15;21.63;;;14.63;;
13943;SDS011;7044;53.286;8.534;2023-04-16T01:25:43;19.70;;;13.87;;
13943;SDS011;7044;53.286;8.534;2023-04-16T01:28:10;19.30;;;13.48;;
13943;SDS011;7044;53.286;8.534;2023-04-16T01:30:37;21.40;;;13.80;;
13943;SDS011;7044;53.286;8.534;2023-04-16T01:33:03;19.67;;;13.40;;
13943;SDS011;7044;53.286;8.534;2023-04-16T01:35:31;16.47;;;13.03;;
13943;SDS011;7044;53.286;8.534;2023-04-16T01:37:59;24.67;;;14.67;;
13943;SDS011;7044;53.286;8.534;2023-04-16T01:40:26;21.08;;;13.52;;
13943;SDS011;7044;53.286;8.534;2023-04-16T01:42:53;21.00;;;13.70;;
13943;SDS011;7044;53.286;8.534;2023-04-16T01:45:20;19.03;;;12.50;;
13943;SDS011;7044;53.286;8.534;2023-04-16T01:47:47;19.47;;;13.43;;
13943;SDS011;7044;53.286;8.534;2023-04-16T01:50:15;18.30;;;12.77;;
13943;SDS011;7044;53.286;8.534;2023-04-16T01:52:42;19.90;;;13.30;;
13943;SDS011;7044;53.286;8.534;2023-04-16T01:55:10;18.47;;;12.27;;
13943;SDS011;7044;53.286;8.534;2023-04-16T01:57:37;20.17;;;13.60;;
13943;SDS011;7044;53.286;8.534;2023-04-16T02:00:05;17.33;;;13.17;;
13943;SDS011;7044;53.286;8.534;2023-04-16T02:02:33;18.40;;;13.43;;
13943;SDS011;7044;53.286;8.534;2023-04-16T02:05:00;18.83;;;13.20;;
13943;SDS011;7044;53.286;8.534;2023-04-16T02:07:27;21.47;;;13.63;;
13943;SDS011;7044;53.286;8.534;2023-04-16T02:09:55;18.57;;;13.27;;
13943;SDS011;7044;53.286;8.534;2023-04-16T02:12:24;20.97;;;14.50;;
13943;SDS011;7044;53.286;8.534;2023-04-16T02:14:51;23.23;;;13.57;;
13943;SDS011;7044;53.286;8.534;2023-04-16T02:17:18;18.33;;;13.43;;
13943;SDS011;7044;53.286;8.534;2023-04-16T02:19:44;21.93;;;14.33;;
13943;SDS011;7044;53.286;8.534;2023-04-16T02:22:11;18.93;;;13.23;;
13943;SDS011;7044;53.286;8.534;2023-04-16T02:24:38;19.70;;;13.33;;
13943;SDS011;7044;53.286;8.534;2023-04-16T02:27:05;19.87;;;13.70;;
13943;SDS011;7044;53.286;8.534;2023-04-16T02:29:33;18.70;;;13.47;;
13943;SDS011;7044;53.286;8.534;2023-04-16T02:32:00;20.83;;;13.27;;
13943;SDS011;7044;53.286;8.534;2023-04-16T02:34:27;20.67;;;13.60;;
13943;SDS011;7044;53.286;8.534;2023-04-16T02:36:54;21.47;;;13.03;;
13943;SDS011;7044;53.286;8.534;2023-04-16T02:39:22;20.93;;;13.50;;
13943;SDS011;7044;53.286;8.534;2023-04-16T02:41:49;19.30;;;13.10;;
13943;SDS011;7044;53.286;8.534;2023-04-16T02:44:16;19.03;;;13.07;;
13943;SDS011;7044;53.286;8.534;2023-04-16T02:46:44;17.97;;;13.17;;
13943;SDS011;7044;53.286;8.534;2023-04-16T02:49:11;19.17;;;13.73;;
13943;SDS011;7044;53.286;8.534;2023-04-16T02:51:38;20.13;;;13.43;;
13943;SDS011;7044;53.286;8.534;2023-04-16T02:54:05;22.73;;;14.40;;
13943;SDS011;7044;53.286;8.534;2023-04-16T02:56:31;19.67;;;13.20;;
13943;SDS011;7044;53.286;8.534;2023-04-16T02:58:58;20.50;;;13.33;;
13943;SDS011;7044;53.286;8.534;2023-04-16T03:01:25;19.20;;;13.30;;
13943;SDS011;7044;53.286;8.534;2023-04-16T03:03:53;22.13;;;13.80;;
13943;SDS011;7044;53.286;8.534;2023-04-16T03:06:20;21.47;;;14.20;;
13943;SDS011;7044;53.286;8.534;2023-04-16T03:08:47;18.97;;;13.60;;
13943;SDS011;7044;53.286;8.534;2023-04-16T03:11:14;21.00;;;13.80;;
13943;SDS011;7044;53.286;8.534;2023-04-16T03:13:41;20.37;;;13.73;;
13943;SDS011;7044;53.286;8.534;2023-04-16T03:16:08;20.73;;;14.27;;
13943;SDS011;7044;53.286;8.534;2023-04-16T03:18:35;19.63;;;13.73;;
13943;SDS011;7044;53.286;8.534;2023-04-16T03:21:04;21.63;;;13.52;;
13943;SDS011;7044;53.286;8.534;2023-04-16T03:23:30;20.37;;;13.20;;
13943;SDS011;7044;53.286;8.534;2023-04-16T03:25:57;19.93;;;14.10;;
13943;SDS011;7044;53.286;8.534;2023-04-16T03:28:24;20.37;;;14.23;;
13943;SDS011;7044;53.286;8.534;2023-04-16T03:30:51;18.60;;;13.50;;
13943;SDS011;7044;53.286;8.534;2023-04-16T03:33:18;22.03;;;13.37;;
13943;SDS011;7044;53.286;8.534;2023-04-16T03:35:45;20.73;;;13.27;;
13943;SDS011;7044;53.286;8.534;2023-04-16T03:38:13;19.30;;;14.15;;
13943;SDS011;7044;53.286;8.534;2023-04-16T03:40:40;19.63;;;14.35;;
13943;SDS011;7044;53.286;8.534;2023-04-16T03:43:07;21.97;;;14.20;;
13943;SDS011;7044;53.286;8.534;2023-04-16T03:45:34;20.02;;;13.60;;
13943;SDS011;7044;53.286;8.534;2023-04-16T03:48:00;18.63;;;12.93;;
13943;SDS011;7044;53.286;8.534;2023-04-16T03:50:27;17.90;;;13.38;;
13943;SDS011;7044;53.286;8.534;2023-04-16T03:52:54;21.07;;;13.37;;
13943;SDS011;7044;53.286;8.534;2023-04-16T03:55:22;18.97;;;12.47;;
13943;SDS011;7044;53.286;8.534;2023-04-16T03:57:49;21.90;;;13.83;;
13943;SDS011;7044;53.286;8.534;2023-04-16T04:00:16;22.70;;;13.47;;
13943;SDS011;7044;53.286;8.534;2023-04-16T04:02:43;23.60;;;13.30;;
13943;SDS011;7044;53.286;8.534;2023-04-16T04:05:10;18.47;;;12.97;;
13943;SDS011;7044;53.286;8.534;2023-04-16T04:07:36;18.47;;;13.13;;
13943;SDS011;7044;53.286;8.534;2023-04-16T04:10:03;18.17;;;13.00;;
13943;SDS011;7044;53.286;8.534;2023-04-16T04:12:32;16.07;;;12.63;;
13943;SDS011;7044;53.286;8.534;2023-04-16T04:14:59;17.00;;;12.43;;
13943;SDS011;7044;53.286;8.534;2023-04-16T04:17:26;24.70;;;13.63;;
13943;SDS011;7044;53.286;8.534;2023-04-16T04:19:53;22.50;;;12.30;;
13943;SDS011;7044;53.286;8.534;2023-04-16T04:22:19;21.80;;;13.17;;
13943;SDS011;7044;53.286;8.534;2023-04-16T04:24:46;18.63;;;12.63;;
13943;SDS011;7044;53.286;8.534;2023-04-16T04:27:13;19.87;;;13.00;;
13943;SDS011;7044;53.286;8.534;2023-04-16T04:29:41;19.90;;;12.53;;
13943;SDS011;7044;53.286;8.534;2023-04-16T04:32:08;19.87;;;12.70;;
13943;SDS011;7044;53.286;8.534;2023-04-16T04:34:35;18.27;;;12.63;;
13943;SDS011;7044;53.286;8.534;2023-04-16T04:37:01;20.97;;;12.73;;
13943;SDS011;7044;53.286;8.534;2023-04-16T04:39:28;22.47;;;13.13;;
13943;SDS011;7044;53.286;8.534;2023-04-16T04:41:56;19.83;;;13.27;;
13943;SDS011;7044;53.286;8.534;2023-04-16T04:44:22;25.23;;;13.73;;
13943;SDS011;7044;53.286;8.534;2023-04-16T04:46:50;17.53;;;11.53;;
13943;SDS011;7044;53.286;8.534;2023-04-16T04:49:17;16.53;;;12.00;;
13943;SDS011;7044;53.286;8.534;2023-04-16T04:51:44;17.77;;;11.37;;
13943;SDS011;7044;53.286;8.534;2023-04-16T04:54:11;19.67;;;12.73;;
13943;SDS011;7044;53.286;8.534;2023-04-16T04:56:38;18.53;;;12.03;;
13943;SDS011;7044;53.286;8.534;2023-04-16T04:59:04;16.83;;;11.63;;
13943;SDS011;7044;53.286;8.534;2023-04-16T05:01:31;18.37;;;11.10;;
13943;SDS011;7044;53.286;8.534;2023-04-16T05:03:59;19.17;;;11.10;;
13943;SDS011;7044;53.286;8.534;2023-04-16T05:06:26;16.90;;;12.10;;
13943;SDS011;7044;53.286;8.534;2023-04-16T05:08:53;21.13;;;12.50;;
13943;SDS011;7044;53.286;8.534;2023-04-16T05:11:20;18.47;;;12.77;;
13943;SDS011;7044;53.286;8.534;2023-04-16T05:13:46;15.18;;;11.52;;
13943;SDS011;7044;53.286;8.534;2023-04-16T05:16:13;17.10;;;11.93;;
13943;SDS011;7044;53.286;8.534;2023-04-16T05:18:40;16.53;;;12.00;;
13943;SDS011;7044;53.286;8.534;2023-04-16T05:21:08;20.33;;;12.23;;
13943;SDS011;7044;53.286;8.534;2023-04-16T05:23:35;20.13;;;12.23;;
13943;SDS011;7044;53.286;8.534;2023-04-16T05:26:02;17.73;;;12.73;;
13943;SDS011;7044;53.286;8.534;2023-04-16T05:28:29;17.20;;;11.57;;
13943;SDS011;7044;53.286;8.534;2023-04-16T05:30:56;21.13;;;13.27;;
13943;SDS011;7044;53.286;8.534;2023-04-16T05:33:22;17.20;;;12.37;;
13943;SDS011;7044;53.286;8.534;2023-04-16T05:35:49;18.38;;;11.35;;
13943;SDS011;7044;53.286;8.534;2023-04-16T05:38:17;17.00;;;11.97;;
13943;SDS011;7044;53.286;8.534;2023-04-16T05:40:44;19.00;;;11.80;;
13943;SDS011;7044;53.286;8.534;2023-04-16T05:43:11;20.27;;;12.77;;
13943;SDS011;7044;53.286;8.534;2023-04-16T05:45:38;16.97;;;11.70;;
13943;SDS011;7044;53.286;8.534;2023-04-16T05:48:05;16.43;;;11.67;;
13943;SDS011;7044;53.286;8.534;2023-04-16T05:50:33;18.30;;;12.63;;
13943;SDS011;7044;53.286;8.534;2023-04-16T05:53:00;25.33;;;12.73;;
13943;SDS011;7044;53.286;8.534;2023-04-16T05:55:28;17.60;;;12.23;;
13943;SDS011;7044;53.286;8.534;2023-04-16T05:57:55;19.83;;;12.07;;
13943;SDS011;7044;53.286;8.534;2023-04-16T06:00:22;18.10;;;12.50;;
13943;SDS011;7044;53.286;8.534;2023-04-16T06:02:49;17.73;;;12.90;;
13943;SDS011;7044;53.286;8.534;2023-04-16T06:05:16;20.07;;;12.03;;
13943;SDS011;7044;53.286;8.534;2023-04-16T06:07:43;16.43;;;11.50;;
13943;SDS011;7044;53.286;8.534;2023-04-16T06:10:10;20.17;;;14.77;;
13943;SDS011;7044;53.286;8.534;2023-04-16T06:12:38;25.50;;;14.87;;
13943;SDS011;7044;53.286;8.534;2023-04-16T06:15:05;20.27;;;12.80;;
13943;SDS011;7044;53.286;8.534;2023-04-16T06:17:33;19.90;;;12.53;;
13943;SDS011;7044;53.286;8.534;2023-04-16T06:20:00;15.77;;;11.97;;
13943;SDS011;7044;53.286;8.534;2023-04-16T06:22:26;16.73;;;11.97;;
13943;SDS011;7044;53.286;8.534;2023-04-16T06:24:53;19.73;;;11.90;;
13943;SDS011;7044;53.286;8.534;2023-04-16T06:27:20;18.93;;;13.07;;
13943;SDS011;7044;53.286;8.534;2023-04-16T06:29:48;18.17;;;12.03;;
13943;SDS011;7044;53.286;8.534;2023-04-16T06:32:15;17.23;;;12.05;;
13943;SDS011;7044;53.286;8.534;2023-04-16T06:34:42;17.03;;;12.20;;
13943;SDS011;7044;53.286;8.534;2023-04-16T06:37:09;20.53;;;12.73;;
13943;SDS011;7044;53.286;8.534;2023-04-16T06:39:36;18.97;;;13.17;;
13943;SDS011;7044;53.286;8.534;2023-04-16T06:42:03;21.50;;;12.50;;
13943;SDS011;7044;53.286;8.534;2023-04-16T06:44:30;20.50;;;12.93;;
13943;SDS011;7044;53.286;8.534;2023-04-16T06:46:58;18.07;;;12.23;;
13943;SDS011;7044;53.286;8.534;2023-04-16T06:49:25;20.00;;;12.50;;
13943;SDS011;7044;53.286;8.534;2023-04-16T06:51:52;20.07;;;12.37;;
13943;SDS011;7044;53.286;8.534;2023-04-16T06:54:18;20.93;;;13.17;;
13943;SDS011;7044;53.286;8.534;2023-04-16T06:56:45;22.40;;;12.48;;
13943;SDS011;7044;53.286;8.534;2023-04-16T06:59:12;17.87;;;11.33;;
13943;SDS011;7044;53.286;8.534;2023-04-16T07:01:39;21.73;;;13.15;;
13943;SDS011;7044;53.286;8.534;2023-04-16T07:04:07;18.43;;;13.37;;
13943;SDS011;7044;53.286;8.534;2023-04-16T07:06:35;16.90;;;11.67;;
13943;SDS011;7044;53.286;8.534;2023-04-16T07:09:01;18.67;;;11.67;;
13943;SDS011;7044;53.286;8.534;2023-04-16T07:11:28;17.80;;;12.87;;
13943;SDS011;7044;53.286;8.534;2023-04-16T07:13:55;18.73;;;12.00;;
13943;SDS011;7044;53.286;8.534;2023-04-16T07:16:23;21.13;;;12.90;;
13943;SDS011;7044;53.286;8.534;2023-04-16T07:18:49;21.13;;;12.00;;
13943;SDS011;7044;53.286;8.534;2023-04-16T07:21:18;17.03;;;12.43;;
13943;SDS011;7044;53.286;8.534;2023-04-16T07:23:45;17.80;;;12.50;;
13943;SDS011;7044;53.286;8.534;2023-04-16T07:26:11;24.87;;;12.67;;
13943;SDS011;7044;53.286;8.534;2023-04-16T07:28:38;19.90;;;12.30;;
13943;SDS011;7044;53.286;8.534;2023-04-16T07:31:05;18.53;;;12.73;;
13943;SDS011;7044;53.286;8.534;2023-04-16T07:33:32;20.30;;;12.73;;
13943;SDS011;7044;53.286;8.534;2023-04-16T07:35:59;19.67;;;12.02;;
13943;SDS011;7044;53.286;8.534;2023-04-16T07:38:27;16.05;;;11.52;;
13943;SDS011;7044;53.286;8.534;2023-04-16T07:40:54;18.90;;;11.70;;
13943;SDS011;7044;53.286;8.534;2023-04-16T07:43:21;18.23;;;12.38;;
13943;SDS011;7044;53.286;8.534;2023-04-16T07:45:48;18.10;;;12.45;;
13943;SDS011;7044;53.286;8.534;2023-04-16T07:48:15;18.52;;;12.02;;
13943;SDS011;7044;53.286;8.534;2023-04-16T07:50:41;22.75;;;12.48;;
13943;SDS011;7044;53.286;8.534;2023-04-16T07:53:08;20.83;;;12.50;;
13943;SDS011;7044;53.286;8.534;2023-04-16T07:55:36;18.55;;;11.85;;
13943;SDS011;7044;53.286;8.534;2023-04-16T07:58:03;20.95;;;11.90;;
13943;SDS011;7044;53.286;8.534;2023-04-16T08:00:31;17.00;;;11.30;;
13943;SDS011;7044;53.286;8.534;2023-04-16T08:02:58;19.33;;;12.38;;
13943;SDS011;7044;53.286;8.534;2023-04-16T08:05:25;20.83;;;11.90;;
13943;SDS011;7044;53.286;8.534;2023-04-16T08:07:52;19.70;;;12.57;;
13943;SDS011;7044;53.286;8.534;2023-04-16T08:10:19;17.30;;;12.15;;
13943;SDS011;7044;53.286;8.534;2023-04-16T08:12:47;19.80;;;12.45;;
13943;SDS011;7044;53.286;8.534;2023-04-16T08:15:14;17.42;;;12.40;;
13943;SDS011;7044;53.286;8.534;2023-04-16T08:17:40;16.08;;;11.18;;
13943;SDS011;7044;53.286;8.534;2023-04-16T08:20:07;17.25;;;11.88;;
13943;SDS011;7044;53.286;8.534;2023-04-16T08:22:35;21.98;;;12.75;;
13943;SDS011;7044;53.286;8.534;2023-04-16T08:25:02;19.33;;;12.65;;
13943;SDS011;7044;53.286;8.534;2023-04-16T08:27:29;20.35;;;11.07;;
13943;SDS011;7044;53.286;8.534;2023-04-16T08:29:57;21.05;;;12.20;;
13943;SDS011;7044;53.286;8.534;2023-04-16T08:32:24;22.40;;;12.15;;
13943;SDS011;7044;53.286;8.534;2023-04-16T08:34:51;25.85;;;12.73;;
13943;SDS011;7044;53.286;8.534;2023-04-16T08:37:18;19.73;;;12.52;;
13943;SDS011;7044;53.286;8.534;2023-04-16T08:39:45;18.02;;;12.05;;
13943;SDS011;7044;53.286;8.534;2023-04-16T08:42:13;14.60;;;11.00;;
13943;SDS011;7044;53.286;8.534;2023-04-16T08:44:47;15.35;;;11.35;;
13943;SDS011;7044;53.286;8.534;2023-04-16T08:47:19;18.50;;;11.52;;
13943;SDS011;7044;53.286;8.534;2023-04-16T08:49:50;18.20;;;11.85;;
13943;SDS011;7044;53.286;8.534;2023-04-16T08:52:21;18.20;;;10.77;;
13943;SDS011;7044;53.286;8.534;2023-04-16T08:54:51;18.77;;;11.77;;
13943;SDS011;7044;53.286;8.534;2023-04-16T08:57:26;16.00;;;11.80;;
13943;SDS011;7044;53.286;8.534;2023-04-16T08:59:59;18.02;;;11.70;;
13943;SDS011;7044;53.286;8.534;2023-04-16T09:02:27;15.93;;;11.75;;
13943;SDS011;7044;53.286;8.534;2023-04-16T09:04:56;21.02;;;12.32;;
13943;SDS011;7044;53.286;8.534;2023-04-16T09:07:25;17.92;;;11.68;;
13943;SDS011;7044;53.286;8.534;2023-04-16T09:09:54;16.17;;;11.90;;
13943;SDS011;7044;53.286;8.534;2023-04-16T09:12:22;20.77;;;14.82;;
13943;SDS011;7044;53.286;8.534;2023-04-16T09:14:49;15.60;;;11.52;;
13943;SDS011;7044;53.286;8.534;2023-04-16T09:17:16;17.17;;;12.30;;
13943;SDS011;7044;53.286;8.534;2023-04-16T09:19:45;20.83;;;11.88;;
13943;SDS011;7044;53.286;8.534;2023-04-16T09:22:12;15.50;;;11.30;;
13943;SDS011;7044;53.286;8.534;2023-04-16T09:24:38;20.95;;;12.25;;
13943;SDS011;7044;53.286;8.534;2023-04-16T09:27:06;30.05;;;16.80;;
13943;SDS011;7044;53.286;8.534;2023-04-16T09:29:33;28.38;;;15.82;;
13943;SDS011;7044;53.286;8.534;2023-04-16T09:32:01;17.67;;;11.30;;
13943;SDS011;7044;53.286;8.534;2023-04-16T09:34:29;16.23;;;11.43;;
13943;SDS011;7044;53.286;8.534;2023-04-16T09:37:05;39.10;;;24.63;;
13943;SDS011;7044;53.286;8.534;2023-04-16T09:39:40;19.13;;;13.60;;
13943;SDS011;7044;53.286;8.534;2023-04-16T09:42:08;15.15;;;11.27;;
13943;SDS011;7044;53.286;8.534;2023-04-16T09:44:35;24.20;;;13.45;;
13943;SDS011;7044;53.286;8.534;2023-04-16T09:47:04;30.95;;;19.83;;
13943;SDS011;7044;53.286;8.534;2023-04-16T09:49:32;23.73;;;15.18;;
13943;SDS011;7044;53.286;8.534;2023-04-16T09:52:00;22.08;;;12.82;;
13943;SDS011;7044;53.286;8.534;2023-04-16T09:54:28;14.88;;;11.73;;
13943;SDS011;7044;53.286;8.534;2023-04-16T09:56:55;16.38;;;10.98;;
13943;SDS011;7044;53.286;8.534;2023-04-16T09:59:23;16.67;;;10.93;;
13943;SDS011;7044;53.286;8.534;2023-04-16T10:01:50;13.25;;;10.38;;
13943;SDS011;7044;53.286;8.534;2023-04-16T10:04:17;16.98;;;11.25;;
13943;SDS011;7044;53.286;8.534;2023-04-16T10:06:44;20.77;;;11.65;;
13943;SDS011;7044;53.286;8.534;2023-04-16T10:09:31;15.57;;;10.93;;
13943;SDS011;7044;53.286;8.534;2023-04-16T10:12:02;15.27;;;10.85;;
13943;SDS011;7044;53.286;8.534;2023-04-16T10:14:29;14.15;;;10.45;;
13943;SDS011;7044;53.286;8.534;2023-04-16T10:16:55;14.68;;;10.60;;
13943;SDS011;7044;53.286;8.534;2023-04-16T10:19:23;15.60;;;10.98;;
13943;SDS011;7044;53.286;8.534;2023-04-16T10:21:50;14.90;;;10.93;;
13943;SDS011;7044;53.286;8.534;2023-04-16T10:24:17;16.42;;;12.30;;
13943;SDS011;7044;53.286;8.534;2023-04-16T10:26:46;19.27;;;13.18;;
13943;SDS011;7044;53.286;8.534;2023-04-16T10:29:15;16.50;;;11.80;;
13943;SDS011;7044;53.286;8.534;2023-04-16T10:31:42;14.57;;;11.27;;
13943;SDS011;7044;53.286;8.534;2023-04-16T10:34:10;21.60;;;18.33;;
13943;SDS011;7044;53.286;8.534;2023-04-16T10:36:37;15.95;;;10.90;;
13943;SDS011;7044;53.286;8.534;2023-04-16T10:39:08;14.10;;;10.70;;
13943;SDS011;7044;53.286;8.534;2023-04-16T10:41:36;18.58;;;11.32;;
13943;SDS011;7044;53.286;8.534;2023-04-16T10:44:05;14.13;;;9.98;;
13943;SDS011;7044;53.286;8.534;2023-04-16T10:46:35;15.85;;;11.30;;
13943;SDS011;7044;53.286;8.534;2023-04-16T10:49:11;17.30;;;10.95;;
13943;SDS011;7044;53.286;8.534;2023-04-16T10:51:40;19.05;;;14.20;;
13943;SDS011;7044;53.286;8.534;2023-04-16T10:54:20;14.88;;;11.77;;
13943;SDS011;7044;53.286;8.534;2023-04-16T10:56:51;16.23;;;11.25;;
13943;SDS011;7044;53.286;8.534;2023-04-16T10:59:21;15.50;;;11.40;;
13943;SDS011;7044;53.286;8.534;2023-04-16T11:01:49;16.77;;;11.23;;
13943;SDS011;7044;53.286;8.534;2023-04-16T11:07:13;17.15;;;11.07;;
13943;SDS011;7044;53.286;8.534;2023-04-16T11:09:43;17.60;;;11.68;;
13943;SDS011;7044;53.286;8.534;2023-04-16T11:12:12;15.43;;;11.68;;
13943;SDS011;7044;53.286;8.534;2023-04-16T11:14:40;17.65;;;11.68;;
13943;SDS011;7044;53.286;8.534;2023-04-16T11:17:08;15.85;;;11.65;;
13943;SDS011;7044;53.286;8.534;2023-04-16T11:19:35;15.35;;;11.38;;
13943;SDS011;7044;53.286;8.534;2023-04-16T11:22:02;17.75;;;11.95;;
13943;SDS011;7044;53.286;8.534;2023-04-16T11:24:29;17.90;;;11.50;;
13943;SDS011;7044;53.286;8.534;2023-04-16T11:26:56;12.95;;;10.45;;
13943;SDS011;7044;53.286;8.534;2023-04-16T11:29:23;15.93;;;11.18;;
13943;SDS011;7044;53.286;8.534;2023-04-16T11:31:51;14.00;;;10.38;;
13943;SDS011;7044;53.286;8.534;2023-04-16T11:34:18;15.00;;;10.15;;
13943;SDS011;7044;53.286;8.534;2023-04-16T11:36:45;16.88;;;11.32;;
13943;SDS011;7044;53.286;8.534;2023-04-16T11:39:14;15.20;;;10.73;;
13943;SDS011;7044;53.286;8.534;2023-04-16T11:41:42;17.55;;;10.52;;
13943;SDS011;7044;53.286;8.534;2023-04-16T11:44:15;15.48;;;10.77;;
13943;SDS011;7044;53.286;8.534;2023-04-16T11:46:43;12.70;;;9.80;;
13943;SDS011;7044;53.286;8.534;2023-04-16T11:49:11;15.57;;;9.80;;
13943;SDS011;7044;53.286;8.534;2023-04-16T11:51:38;13.82;;;9.13;;
13943;SDS011;7044;53.286;8.534;2023-04-16T11:54:06;12.88;;;8.93;;
13943;SDS011;7044;53.286;8.534;2023-04-16T11:56:34;15.63;;;9.98;;
13943;SDS011;7044;53.286;8.534;2023-04-16T11:59:04;12.60;;;9.65;;
13943;SDS011;7044;53.286;8.534;2023-04-16T12:01:35;18.27;;;9.60;;
13943;SDS011;7044;53.286;8.534;2023-04-16T12:04:03;11.43;;;9.23;;
13943;SDS011;7044;53.286;8.534;2023-04-16T12:06:31;15.65;;;9.27;;
13943;SDS011;7044;53.286;8.534;2023-04-16T12:08:58;12.52;;;9.30;;
13943;SDS011;7044;53.286;8.534;2023-04-16T12:11:38;14.25;;;10.02;;
13943;SDS011;7044;53.286;8.534;2023-04-16T12:14:05;16.38;;;10.38;;
13943;SDS011;7044;53.286;8.534;2023-04-16T12:16:33;14.05;;;10.00;;
13943;SDS011;7044;53.286;8.534;2023-04-16T12:19:00;12.30;;;9.15;;
13943;SDS011;7044;53.286;8.534;2023-04-16T12:21:39;12.65;;;9.60;;
13943;SDS011;7044;53.286;8.534;2023-04-16T12:24:08;16.08;;;9.90;;
13943;SDS011;7044;53.286;8.534;2023-04-16T12:26:40;16.10;;;10.60;;
13943;SDS011;7044;53.286;8.534;2023-04-16T12:29:15;14.18;;;10.07;;
13943;SDS011;7044;53.286;8.534;2023-04-16T12:31:43;12.73;;;9.73;;
13943;SDS011;7044;53.286;8.534;2023-04-16T12:34:10;16.13;;;9.00;;
13943;SDS011;7044;53.286;8.534;2023-04-16T12:36:40;12.38;;;9.02;;
13943;SDS011;7044;53.286;8.534;2023-04-16T12:39:07;11.40;;;9.52;;
13943;SDS011;7044;53.286;8.534;2023-04-16T12:41:36;13.75;;;9.35;;
13943;SDS011;7044;53.286;8.534;2023-04-16T12:44:04;13.95;;;10.27;;
13943;SDS011;7044;53.286;8.534;2023-04-16T12:46:33;14.00;;;10.30;;
13943;SDS011;7044;53.286;8.534;2023-04-16T12:49:00;14.90;;;9.27;;
13943;SDS011;7044;53.286;8.534;2023-04-16T12:51:27;14.57;;;9.52;;
13943;SDS011;7044;53.286;8.534;2023-04-16T12:53:55;11.20;;;9.38;;
13943;SDS011;7044;53.286;8.534;2023-04-16T12:56:22;11.50;;;8.95;;
13943;SDS011;7044;53.286;8.534;2023-04-16T12:58:49;16.50;;;9.15;;
13943;SDS011;7044;53.286;8.534;2023-04-16T13:01:16;15.43;;;9.93;;
13943;SDS011;7044;53.286;8.534;2023-04-16T13:03:43;13.65;;;9.95;;
13943;SDS011;7044;53.286;8.534;2023-04-16T13:06:11;15.10;;;10.52;;
13943;SDS011;7044;53.286;8.534;2023-04-16T13:08:38;12.30;;;10.13;;
13943;SDS011;7044;53.286;8.534;2023-04-16T13:11:06;15.90;;;10.27;;
13943;SDS011;7044;53.286;8.534;2023-04-16T13:13:33;14.32;;;10.00;;
13943;SDS011;7044;53.286;8.534;2023-04-16T13:16:00;11.88;;;9.45;;
13943;SDS011;7044;53.286;8.534;2023-04-16T13:18:30;11.98;;;9.65;;
13943;SDS011;7044;53.286;8.534;2023-04-16T13:20:57;14.98;;;9.55;;
13943;SDS011;7044;53.286;8.534;2023-04-16T13:23:24;12.32;;;9.65;;
13943;SDS011;7044;53.286;8.534;2023-04-16T13:25:51;12.93;;;9.73;;
13943;SDS011;7044;53.286;8.534;2023-04-16T13:28:19;12.73;;;9.43;;
13943;SDS011;7044;53.286;8.534;2023-04-16T13:30:46;14.65;;;9.75;;
13943;SDS011;7044;53.286;8.534;2023-04-16T13:33:13;13.60;;;10.10;;
13943;SDS011;7044;53.286;8.534;2023-04-16T13:35:40;13.85;;;9.88;;
13943;SDS011;7044;53.286;8.534;2023-04-16T13:38:07;13.38;;;10.75;;
13943;SDS011;7044;53.286;8.534;2023-04-16T13:40:34;17.48;;;9.82;;
13943;SDS011;7044;53.286;8.534;2023-04-16T13:43:01;13.68;;;10.43;;
13943;SDS011;7044;53.286;8.534;2023-04-16T13:45:29;13.20;;;9.63;;
13943;SDS011;7044;53.286;8.534;2023-04-16T13:47:56;13.48;;;10.50;;
13943;SDS011;7044;53.286;8.534;2023-04-16T13:50:22;15.30;;;11.02;;
13943;SDS011;7044;53.286;8.534;2023-04-16T13:52:49;19.13;;;10.27;;
13943;SDS011;7044;53.286;8.534;2023-04-16T13:55:16;13.32;;;10.30;;
13943;SDS011;7044;53.286;8.534;2023-04-16T13:57:44;15.25;;;10.15;;
13943;SDS011;7044;53.286;8.534;2023-04-16T14:00:11;18.42;;;10.25;;
13943;SDS011;7044;53.286;8.534;2023-04-16T14:02:41;13.65;;;9.70;;
13943;SDS011;7044;53.286;8.534;2023-04-16T14:05:09;13.73;;;10.02;;
13943;SDS011;7044;53.286;8.534;2023-04-16T14:07:36;15.90;;;10.90;;
13943;SDS011;7044;53.286;8.534;2023-04-16T14:10:03;14.43;;;9.52;;
13943;SDS011;7044;53.286;8.534;2023-04-16T14:12:30;15.48;;;10.32;;
13943;SDS011;7044;53.286;8.534;2023-04-16T14:14:57;12.52;;;9.65;;
13943;SDS011;7044;53.286;8.534;2023-04-16T14:17:26;14.27;;;9.98;;
13943;SDS011;7044;53.286;8.534;2023-04-16T14:19:54;13.50;;;10.57;;
13943;SDS011;7044;53.286;8.534;2023-04-16T14:22:20;14.48;;;10.38;;
13943;SDS011;7044;53.286;8.534;2023-04-16T14:24:47;15.63;;;10.73;;
13943;SDS011;7044;53.286;8.534;2023-04-16T14:27:14;14.05;;;9.70;;
13943;SDS011;7044;53.286;8.534;2023-04-16T14:29:41;13.10;;;10.43;;
13943;SDS011;7044;53.286;8.534;2023-04-16T14:32:08;14.18;;;10.35;;
13943;SDS011;7044;53.286;8.534;2023-04-16T14:34:35;16.88;;;11.10;;
13943;SDS011;7044;53.286;8.534;2023-04-16T14:37:03;14.30;;;10.20;;
13943;SDS011;7044;53.286;8.534;2023-04-16T14:39:31;14.80;;;10.75;;
13943;SDS011;7044;53.286;8.534;2023-04-16T14:41:57;15.05;;;10.63;;